sensor_id;sensor_type;location;lat;lon;timestamp;P1;durP1;ratioP1;P2;durP2;ratioP2
53479;SDS011;56133;51.012;-1.648;2022-08-03T00:01:00;7.53;;;2.67;;
53479;SDS011;56133;51.012;-1.648;2022-08-03T00:03:26;11.70;;;2.83;;
53479;SDS011;56133;51.012;-1.648;2022-08-03T00:05:51;13.23;;;2.60;;
53479;SDS011;56133;51.012;-1.648;2022-08-03T00:08:17;8.88;;;2.53;;
53479;SDS011;56133;51.012;-1.648;2022-08-03T00:10:42;9.75;;;2.30;;
53479;SDS011;56133;51.012;-1.648;2022-08-03T00:13:08;12.88;;;2.92;;
53479;SDS011;56133;51.012;-1.648;2022-08-03T00:15:36;11.25;;;2.72;;
53479;SDS011;56133;51.012;-1.648;2022-08-03T00:18:02;11.65;;;2.97;;
53479;SDS011;56133;51.012;-1.648;2022-08-03T00:20:28;9.68;;;2.75;;
53479;SDS011;56133;51.012;-1.648;2022-08-03T00:22:53;12.77;;;2.88;;
53479;SDS011;56133;51.012;-1.648;2022-08-03T00:25:19;14.65;;;2.90;;
53479;SDS011;56133;51.012;-1.648;2022-08-03T00:27:44;9.73;;;2.30;;
53479;SDS011;56133;51.012;-1.648;2022-08-03T00:30:10;14.73;;;3.08;;
53479;SDS011;56133;51.012;-1.648;2022-08-03T00:32:35;13.68;;;2.70;;
53479;SDS011;56133;51.012;-1.648;2022-08-03T00:35:01;11.85;;;3.20;;
53479;SDS011;56133;51.012;-1.648;2022-08-03T00:37:26;11.57;;;2.70;;
53479;SDS011;56133;51.012;-1.648;2022-08-03T00:39:51;14.80;;;3.00;;
53479;SDS011;56133;51.012;-1.648;2022-08-03T00:42:17;11.50;;;2.78;;
53479;SDS011;56133;51.012;-1.648;2022-08-03T00:44:42;15.50;;;2.60;;
53479;SDS011;56133;51.012;-1.648;2022-08-03T00:47:08;11.98;;;2.75;;
53479;SDS011;56133;51.012;-1.648;2022-08-03T00:49:38;11.00;;;2.80;;
53479;SDS011;56133;51.012;-1.648;2022-08-03T00:52:05;11.88;;;2.75;;
53479;SDS011;56133;51.012;-1.648;2022-08-03T00:54:32;14.18;;;2.55;;
53479;SDS011;56133;51.012;-1.648;2022-08-03T00:57:00;11.13;;;2.50;;
53479;SDS011;56133;51.012;-1.648;2022-08-03T00:59:26;10.45;;;3.05;;
53479;SDS011;56133;51.012;-1.648;2022-08-03T01:01:52;13.43;;;2.70;;
53479;SDS011;56133;51.012;-1.648;2022-08-03T01:04:18;8.80;;;2.60;;
53479;SDS011;56133;51.012;-1.648;2022-08-03T01:06:51;13.90;;;3.30;;
53479;SDS011;56133;51.012;-1.648;2022-08-03T01:16:05;10.38;;;2.33;;
53479;SDS011;56133;51.012;-1.648;2022-08-03T01:18:10;11.82;;;3.25;;
53479;SDS011;56133;51.012;-1.648;2022-08-03T01:20:46;11.25;;;2.25;;
53479;SDS011;56133;51.012;-1.648;2022-08-03T01:23:28;15.40;;;2.67;;
53479;SDS011;56133;51.012;-1.648;2022-08-03T01:26:41;9.23;;;2.30;;
53479;SDS011;56133;51.012;-1.648;2022-08-03T01:31:38;7.55;;;2.20;;
53479;SDS011;56133;51.012;-1.648;2022-08-03T01:34:07;10.35;;;2.30;;
53479;SDS011;56133;51.012;-1.648;2022-08-03T01:36:38;7.07;;;2.00;;
53479;SDS011;56133;51.012;-1.648;2022-08-03T01:39:07;10.95;;;1.90;;
53479;SDS011;56133;51.012;-1.648;2022-08-03T01:41:58;5.82;;;1.83;;
53479;SDS011;56133;51.012;-1.648;2022-08-03T01:44:24;9.25;;;1.67;;
53479;SDS011;56133;51.012;-1.648;2022-08-03T01:46:53;6.90;;;1.70;;
53479;SDS011;56133;51.012;-1.648;2022-08-03T01:49:22;6.30;;;1.38;;
53479;SDS011;56133;51.012;-1.648;2022-08-03T01:51:49;6.28;;;1.80;;
53479;SDS011;56133;51.012;-1.648;2022-08-03T01:54:16;7.82;;;1.85;;
53479;SDS011;56133;51.012;-1.648;2022-08-03T01:56:43;6.88;;;1.70;;
53479;SDS011;56133;51.012;-1.648;2022-08-03T01:59:11;6.88;;;1.30;;
53479;SDS011;56133;51.012;-1.648;2022-08-03T02:01:40;10.07;;;1.60;;
53479;SDS011;56133;51.012;-1.648;2022-08-03T02:04:08;6.90;;;1.20;;
53479;SDS011;56133;51.012;-1.648;2022-08-03T02:06:37;7.63;;;1.20;;
53479;SDS011;56133;51.012;-1.648;2022-08-03T02:09:04;6.25;;;1.38;;
53479;SDS011;56133;51.012;-1.648;2022-08-03T02:11:30;7.15;;;1.75;;
53479;SDS011;56133;51.012;-1.648;2022-08-03T02:13:59;6.45;;;1.25;;
53479;SDS011;56133;51.012;-1.648;2022-08-03T02:16:27;7.93;;;1.60;;
53479;SDS011;56133;51.012;-1.648;2022-08-03T02:18:57;6.55;;;1.65;;
53479;SDS011;56133;51.012;-1.648;2022-08-03T02:21:24;7.40;;;1.38;;
53479;SDS011;56133;51.012;-1.648;2022-08-03T02:23:52;5.65;;;1.30;;
53479;SDS011;56133;51.012;-1.648;2022-08-03T02:26:18;3.60;;;1.40;;
53479;SDS011;56133;51.012;-1.648;2022-08-03T02:28:46;10.10;;;1.50;;
53479;SDS011;56133;51.012;-1.648;2022-08-03T02:31:17;7.07;;;1.70;;
53479;SDS011;56133;51.012;-1.648;2022-08-03T02:33:48;6.35;;;1.48;;
53479;SDS011;56133;51.012;-1.648;2022-08-03T02:36:18;4.70;;;1.70;;
53479;SDS011;56133;51.012;-1.648;2022-08-03T02:38:47;8.02;;;1.40;;
53479;SDS011;56133;51.012;-1.648;2022-08-03T02:41:15;5.88;;;1.60;;
53479;SDS011;56133;51.012;-1.648;2022-08-03T02:43:45;6.80;;;1.27;;
53479;SDS011;56133;51.012;-1.648;2022-08-03T02:46:13;10.50;;;2.47;;
53479;SDS011;56133;51.012;-1.648;2022-08-03T02:48:43;5.85;;;1.55;;
53479;SDS011;56133;51.012;-1.648;2022-08-03T02:51:11;9.48;;;2.00;;
53479;SDS011;56133;51.012;-1.648;2022-08-03T02:53:38;8.52;;;1.70;;
53479;SDS011;56133;51.012;-1.648;2022-08-03T02:56:04;7.50;;;1.45;;
53479;SDS011;56133;51.012;-1.648;2022-08-03T02:58:31;8.18;;;1.73;;
53479;SDS011;56133;51.012;-1.648;2022-08-03T03:00:57;5.75;;;1.65;;
53479;SDS011;56133;51.012;-1.648;2022-08-03T03:03:24;8.23;;;1.70;;
53479;SDS011;56133;51.012;-1.648;2022-08-03T03:05:50;9.73;;;1.80;;
53479;SDS011;56133;51.012;-1.648;2022-08-03T03:08:17;12.20;;;2.17;;
53479;SDS011;56133;51.012;-1.648;2022-08-03T03:10:44;8.63;;;1.77;;
53479;SDS011;56133;51.012;-1.648;2022-08-03T03:13:11;9.68;;;2.17;;
53479;SDS011;56133;51.012;-1.648;2022-08-03T03:15:39;9.20;;;2.22;;
53479;SDS011;56133;51.012;-1.648;2022-08-03T03:18:06;7.40;;;2.30;;
53479;SDS011;56133;51.012;-1.648;2022-08-03T03:20:34;8.38;;;2.20;;
53479;SDS011;56133;51.012;-1.648;2022-08-03T03:23:01;14.00;;;2.35;;
53479;SDS011;56133;51.012;-1.648;2022-08-03T03:25:29;8.20;;;2.50;;
53479;SDS011;56133;51.012;-1.648;2022-08-03T03:27:56;8.65;;;2.10;;
53479;SDS011;56133;51.012;-1.648;2022-08-03T03:30:24;7.07;;;1.83;;
53479;SDS011;56133;51.012;-1.648;2022-08-03T03:32:50;7.78;;;2.30;;
53479;SDS011;56133;51.012;-1.648;2022-08-03T03:35:16;8.50;;;1.70;;
53479;SDS011;56133;51.012;-1.648;2022-08-03T03:37:42;6.25;;;1.95;;
53479;SDS011;56133;51.012;-1.648;2022-08-03T03:40:07;10.80;;;2.22;;
53479;SDS011;56133;51.012;-1.648;2022-08-03T03:42:34;8.80;;;2.00;;
53479;SDS011;56133;51.012;-1.648;2022-08-03T03:45:03;16.35;;;2.67;;
53479;SDS011;56133;51.012;-1.648;2022-08-03T03:47:29;7.43;;;1.95;;
53479;SDS011;56133;51.012;-1.648;2022-08-03T03:49:56;7.40;;;2.00;;
53479;SDS011;56133;51.012;-1.648;2022-08-03T03:52:21;8.85;;;1.83;;
53479;SDS011;56133;51.012;-1.648;2022-08-03T03:54:47;6.43;;;1.95;;
53479;SDS011;56133;51.012;-1.648;2022-08-03T03:57:12;9.50;;;1.98;;
53479;SDS011;56133;51.012;-1.648;2022-08-03T03:59:38;6.95;;;1.92;;
53479;SDS011;56133;51.012;-1.648;2022-08-03T04:02:07;10.68;;;2.22;;
53479;SDS011;56133;51.012;-1.648;2022-08-03T04:04:34;9.57;;;2.45;;
53479;SDS011;56133;51.012;-1.648;2022-08-03T04:07:19;14.50;;;2.00;;
53479;SDS011;56133;51.012;-1.648;2022-08-03T04:10:12;7.35;;;1.90;;
53479;SDS011;56133;51.012;-1.648;2022-08-03T04:12:59;10.35;;;2.03;;
53479;SDS011;56133;51.012;-1.648;2022-08-03T04:15:28;8.65;;;1.77;;
53479;SDS011;56133;51.012;-1.648;2022-08-03T04:17:57;7.90;;;1.50;;
53479;SDS011;56133;51.012;-1.648;2022-08-03T04:20:28;8.98;;;1.73;;
53479;SDS011;56133;51.012;-1.648;2022-08-03T04:22:56;7.35;;;1.55;;
53479;SDS011;56133;51.012;-1.648;2022-08-03T04:25:25;7.05;;;1.63;;
53479;SDS011;56133;51.012;-1.648;2022-08-03T04:27:54;4.45;;;1.42;;
53479;SDS011;56133;51.012;-1.648;2022-08-03T04:30:23;6.43;;;1.30;;
53479;SDS011;56133;51.012;-1.648;2022-08-03T04:32:56;5.47;;;1.42;;
53479;SDS011;56133;51.012;-1.648;2022-08-03T04:35:25;6.10;;;1.50;;
53479;SDS011;56133;51.012;-1.648;2022-08-03T04:37:55;5.72;;;1.38;;
53479;SDS011;56133;51.012;-1.648;2022-08-03T04:40:29;7.13;;;1.50;;
53479;SDS011;56133;51.012;-1.648;2022-08-03T04:42:58;6.00;;;1.33;;
53479;SDS011;56133;51.012;-1.648;2022-08-03T04:45:26;7.20;;;1.42;;
53479;SDS011;56133;51.012;-1.648;2022-08-03T04:47:52;5.32;;;1.15;;
53479;SDS011;56133;51.012;-1.648;2022-08-03T04:50:19;4.30;;;1.20;;
53479;SDS011;56133;51.012;-1.648;2022-08-03T04:52:45;8.20;;;1.40;;
53479;SDS011;56133;51.012;-1.648;2022-08-03T04:55:12;4.75;;;1.13;;
53479;SDS011;56133;51.012;-1.648;2022-08-03T04:57:52;3.40;;;1.10;;
53479;SDS011;56133;51.012;-1.648;2022-08-03T05:00:17;2.95;;;0.90;;
53479;SDS011;56133;51.012;-1.648;2022-08-03T05:02:43;6.78;;;1.42;;
53479;SDS011;56133;51.012;-1.648;2022-08-03T05:05:09;6.53;;;1.30;;
53479;SDS011;56133;51.012;-1.648;2022-08-03T05:07:36;7.72;;;1.30;;
53479;SDS011;56133;51.012;-1.648;2022-08-03T05:10:05;5.28;;;1.10;;
53479;SDS011;56133;51.012;-1.648;2022-08-03T05:12:32;3.38;;;0.90;;
53479;SDS011;56133;51.012;-1.648;2022-08-03T05:14:57;2.55;;;0.80;;
53479;SDS011;56133;51.012;-1.648;2022-08-03T05:17:23;4.45;;;0.88;;
53479;SDS011;56133;51.012;-1.648;2022-08-03T05:19:48;3.53;;;0.70;;
53479;SDS011;56133;51.012;-1.648;2022-08-03T05:22:14;3.53;;;1.00;;
53479;SDS011;56133;51.012;-1.648;2022-08-03T05:24:39;2.33;;;0.90;;
53479;SDS011;56133;51.012;-1.648;2022-08-03T05:27:04;3.67;;;0.93;;
53479;SDS011;56133;51.012;-1.648;2022-08-03T05:29:30;4.25;;;0.98;;
53479;SDS011;56133;51.012;-1.648;2022-08-03T05:31:55;2.05;;;0.88;;
53479;SDS011;56133;51.012;-1.648;2022-08-03T05:34:21;4.68;;;0.80;;
53479;SDS011;56133;51.012;-1.648;2022-08-03T05:36:46;3.97;;;0.70;;
53479;SDS011;56133;51.012;-1.648;2022-08-03T05:39:12;1.65;;;0.70;;
53479;SDS011;56133;51.012;-1.648;2022-08-03T05:41:37;3.08;;;0.82;;
53479;SDS011;56133;51.012;-1.648;2022-08-03T05:44:03;2.80;;;0.60;;
53479;SDS011;56133;51.012;-1.648;2022-08-03T05:46:29;2.33;;;0.65;;
53479;SDS011;56133;51.012;-1.648;2022-08-03T05:48:54;3.42;;;0.70;;
53479;SDS011;56133;51.012;-1.648;2022-08-03T05:51:19;1.55;;;0.60;;
53479;SDS011;56133;51.012;-1.648;2022-08-03T05:53:45;5.00;;;0.80;;
53479;SDS011;56133;51.012;-1.648;2022-08-03T05:56:11;3.60;;;0.80;;
53479;SDS011;56133;51.012;-1.648;2022-08-03T05:58:36;3.42;;;0.88;;
53479;SDS011;56133;51.012;-1.648;2022-08-03T06:01:02;3.95;;;0.95;;
53479;SDS011;56133;51.012;-1.648;2022-08-03T06:03:28;2.53;;;0.60;;
53479;SDS011;56133;51.012;-1.648;2022-08-03T06:05:53;2.85;;;0.80;;
53479;SDS011;56133;51.012;-1.648;2022-08-03T06:08:21;2.05;;;0.55;;
53479;SDS011;56133;51.012;-1.648;2022-08-03T06:10:47;2.67;;;0.70;;
53479;SDS011;56133;51.012;-1.648;2022-08-03T06:13:13;2.50;;;0.80;;
53479;SDS011;56133;51.012;-1.648;2022-08-03T06:15:39;2.40;;;0.85;;
53479;SDS011;56133;51.012;-1.648;2022-08-03T06:18:04;2.40;;;0.80;;
53479;SDS011;56133;51.012;-1.648;2022-08-03T06:20:31;1.45;;;0.60;;
53479;SDS011;56133;51.012;-1.648;2022-08-03T06:22:57;3.10;;;0.63;;
53479;SDS011;56133;51.012;-1.648;2022-08-03T06:25:24;1.52;;;0.47;;
53479;SDS011;56133;51.012;-1.648;2022-08-03T06:27:50;3.28;;;0.68;;
53479;SDS011;56133;51.012;-1.648;2022-08-03T06:30:16;3.80;;;0.80;;
53479;SDS011;56133;51.012;-1.648;2022-08-03T06:32:42;2.00;;;0.70;;
53479;SDS011;56133;51.012;-1.648;2022-08-03T06:35:08;2.78;;;0.75;;
53479;SDS011;56133;51.012;-1.648;2022-08-03T06:40:13;2.00;;;0.70;;
53479;SDS011;56133;51.012;-1.648;2022-08-03T06:42:40;1.50;;;0.60;;
53479;SDS011;56133;51.012;-1.648;2022-08-03T06:45:07;2.85;;;0.70;;
53479;SDS011;56133;51.012;-1.648;2022-08-03T06:47:34;1.30;;;0.50;;
53479;SDS011;56133;51.012;-1.648;2022-08-03T06:50:00;2.50;;;0.82;;
53479;SDS011;56133;51.012;-1.648;2022-08-03T06:52:27;3.67;;;0.70;;
53479;SDS011;56133;51.012;-1.648;2022-08-03T06:54:52;2.80;;;0.80;;
53479;SDS011;56133;51.012;-1.648;2022-08-03T06:57:18;2.90;;;0.73;;
53479;SDS011;56133;51.012;-1.648;2022-08-03T06:59:43;5.13;;;0.88;;
53479;SDS011;56133;51.012;-1.648;2022-08-03T07:02:09;1.52;;;0.90;;
53479;SDS011;56133;51.012;-1.648;2022-08-03T07:04:35;3.55;;;0.60;;
53479;SDS011;56133;51.012;-1.648;2022-08-03T07:07:01;3.95;;;0.77;;
53479;SDS011;56133;51.012;-1.648;2022-08-03T07:09:27;2.47;;;0.70;;
53479;SDS011;56133;51.012;-1.648;2022-08-03T07:11:52;3.75;;;1.02;;
53479;SDS011;56133;51.012;-1.648;2022-08-03T07:14:19;4.57;;;0.73;;
53479;SDS011;56133;51.012;-1.648;2022-08-03T07:16:45;3.50;;;0.73;;
53479;SDS011;56133;51.012;-1.648;2022-08-03T07:19:11;2.25;;;0.68;;
53479;SDS011;56133;51.012;-1.648;2022-08-03T07:21:36;4.15;;;0.90;;
53479;SDS011;56133;51.012;-1.648;2022-08-03T07:24:02;2.42;;;0.60;;
53479;SDS011;56133;51.012;-1.648;2022-08-03T07:26:28;3.40;;;0.82;;
53479;SDS011;56133;51.012;-1.648;2022-08-03T07:28:53;1.88;;;0.52;;
53479;SDS011;56133;51.012;-1.648;2022-08-03T07:31:19;4.63;;;0.52;;
53479;SDS011;56133;51.012;-1.648;2022-08-03T07:33:44;1.90;;;0.50;;
53479;SDS011;56133;51.012;-1.648;2022-08-03T07:36:10;3.28;;;0.60;;
53479;SDS011;56133;51.012;-1.648;2022-08-03T07:38:35;2.97;;;0.57;;
53479;SDS011;56133;51.012;-1.648;2022-08-03T07:41:01;2.60;;;0.50;;
53479;SDS011;56133;51.012;-1.648;2022-08-03T07:43:28;1.13;;;0.47;;
53479;SDS011;56133;51.012;-1.648;2022-08-03T07:45:54;2.25;;;0.47;;
53479;SDS011;56133;51.012;-1.648;2022-08-03T07:48:20;1.25;;;0.30;;
53479;SDS011;56133;51.012;-1.648;2022-08-03T07:50:45;0.60;;;0.30;;
53479;SDS011;56133;51.012;-1.648;2022-08-03T07:53:11;1.73;;;0.40;;
53479;SDS011;56133;51.012;-1.648;2022-08-03T07:55:37;1.17;;;0.40;;
53479;SDS011;56133;51.012;-1.648;2022-08-03T07:58:06;0.52;;;0.32;;
53479;SDS011;56133;51.012;-1.648;2022-08-03T08:00:34;2.47;;;0.47;;
53479;SDS011;56133;51.012;-1.648;2022-08-03T08:03:00;0.57;;;0.30;;
53479;SDS011;56133;51.012;-1.648;2022-08-03T08:05:26;1.80;;;0.40;;
53479;SDS011;56133;51.012;-1.648;2022-08-03T08:07:52;2.65;;;0.47;;
53479;SDS011;56133;51.012;-1.648;2022-08-03T08:10:18;2.13;;;0.50;;
53479;SDS011;56133;51.012;-1.648;2022-08-03T08:12:44;2.95;;;0.55;;
53479;SDS011;56133;51.012;-1.648;2022-08-03T08:15:10;2.05;;;0.60;;
53479;SDS011;56133;51.012;-1.648;2022-08-03T08:17:45;2.97;;;0.40;;
53479;SDS011;56133;51.012;-1.648;2022-08-03T08:20:31;3.03;;;0.60;;
53479;SDS011;56133;51.012;-1.648;2022-08-03T08:23:00;3.17;;;0.70;;
53479;SDS011;56133;51.012;-1.648;2022-08-03T08:25:28;2.25;;;0.80;;
53479;SDS011;56133;51.012;-1.648;2022-08-03T08:27:54;3.13;;;1.02;;
53479;SDS011;56133;51.012;-1.648;2022-08-03T08:30:20;1.77;;;0.90;;
53479;SDS011;56133;51.012;-1.648;2022-08-03T08:32:47;4.18;;;1.20;;
53479;SDS011;56133;51.012;-1.648;2022-08-03T08:35:14;3.35;;;1.30;;
53479;SDS011;56133;51.012;-1.648;2022-08-03T08:37:40;5.80;;;1.42;;
53479;SDS011;56133;51.012;-1.648;2022-08-03T08:40:07;4.38;;;1.30;;
53479;SDS011;56133;51.012;-1.648;2022-08-03T08:42:35;3.10;;;1.58;;
53479;SDS011;56133;51.012;-1.648;2022-08-03T08:45:02;3.42;;;1.50;;
53479;SDS011;56133;51.012;-1.648;2022-08-03T08:47:30;4.22;;;1.90;;
53479;SDS011;56133;51.012;-1.648;2022-08-03T08:49:57;4.20;;;1.52;;
53479;SDS011;56133;51.012;-1.648;2022-08-03T08:52:24;2.85;;;1.77;;
53479;SDS011;56133;51.012;-1.648;2022-08-03T08:54:56;3.53;;;1.50;;
53479;SDS011;56133;51.012;-1.648;2022-08-03T08:57:25;4.22;;;1.50;;
53479;SDS011;56133;51.012;-1.648;2022-08-03T08:59:53;5.25;;;1.80;;
53479;SDS011;56133;51.012;-1.648;2022-08-03T09:02:21;4.03;;;1.90;;
53479;SDS011;56133;51.012;-1.648;2022-08-03T09:04:48;4.57;;;1.60;;
53479;SDS011;56133;51.012;-1.648;2022-08-03T09:07:14;4.75;;;1.50;;
53479;SDS011;56133;51.012;-1.648;2022-08-03T09:09:40;4.60;;;1.70;;
53479;SDS011;56133;51.012;-1.648;2022-08-03T09:12:06;4.10;;;1.92;;
53479;SDS011;56133;51.012;-1.648;2022-08-03T09:14:32;4.80;;;1.70;;
53479;SDS011;56133;51.012;-1.648;2022-08-03T09:16:59;7.85;;;1.75;;
53479;SDS011;56133;51.012;-1.648;2022-08-03T09:19:26;4.53;;;1.85;;
53479;SDS011;56133;51.012;-1.648;2022-08-03T09:22:10;4.88;;;1.30;;
53479;SDS011;56133;51.012;-1.648;2022-08-03T09:24:37;5.75;;;1.80;;
53479;SDS011;56133;51.012;-1.648;2022-08-03T09:27:18;4.13;;;1.63;;
53479;SDS011;56133;51.012;-1.648;2022-08-03T09:29:46;2.53;;;1.40;;
53479;SDS011;56133;51.012;-1.648;2022-08-03T09:32:13;4.13;;;1.30;;
53479;SDS011;56133;51.012;-1.648;2022-08-03T09:34:38;6.07;;;1.50;;
53479;SDS011;56133;51.012;-1.648;2022-08-03T09:37:12;6.95;;;1.60;;
53479;SDS011;56133;51.012;-1.648;2022-08-03T09:39:39;3.63;;;1.50;;
53479;SDS011;56133;51.012;-1.648;2022-08-03T09:44:38;5.00;;;1.80;;
53479;SDS011;56133;51.012;-1.648;2022-08-03T09:47:14;3.97;;;1.70;;
53479;SDS011;56133;51.012;-1.648;2022-08-03T09:49:58;4.90;;;1.88;;
53479;SDS011;56133;51.012;-1.648;2022-08-03T09:52:38;6.53;;;1.98;;
53479;SDS011;56133;51.012;-1.648;2022-08-03T09:55:08;5.55;;;1.80;;
53479;SDS011;56133;51.012;-1.648;2022-08-03T09:57:37;5.38;;;1.70;;
53479;SDS011;56133;51.012;-1.648;2022-08-03T10:00:11;6.35;;;2.00;;
53479;SDS011;56133;51.012;-1.648;2022-08-03T10:02:39;5.55;;;1.83;;
53479;SDS011;56133;51.012;-1.648;2022-08-03T10:05:06;9.73;;;2.10;;
53479;SDS011;56133;51.012;-1.648;2022-08-03T10:07:47;17.92;;;2.50;;
53479;SDS011;56133;51.012;-1.648;2022-08-03T10:10:14;3.90;;;2.00;;
53479;SDS011;56133;51.012;-1.648;2022-08-03T10:12:41;8.10;;;2.28;;
53479;SDS011;56133;51.012;-1.648;2022-08-03T10:15:08;5.25;;;1.95;;
53479;SDS011;56133;51.012;-1.648;2022-08-03T10:17:34;8.07;;;2.08;;
53479;SDS011;56133;51.012;-1.648;2022-08-03T10:20:00;7.63;;;2.00;;
53479;SDS011;56133;51.012;-1.648;2022-08-03T10:22:31;6.18;;;1.98;;
53479;SDS011;56133;51.012;-1.648;2022-08-03T10:24:59;8.05;;;1.92;;
53479;SDS011;56133;51.012;-1.648;2022-08-03T10:27:35;7.03;;;2.63;;
53479;SDS011;56133;51.012;-1.648;2022-08-03T10:30:03;8.30;;;2.38;;
53479;SDS011;56133;51.012;-1.648;2022-08-03T10:32:34;8.48;;;2.80;;
53479;SDS011;56133;51.012;-1.648;2022-08-03T10:35:15;5.38;;;2.08;;
53479;SDS011;56133;51.012;-1.648;2022-08-03T10:37:51;5.72;;;2.40;;
53479;SDS011;56133;51.012;-1.648;2022-08-03T10:40:22;7.38;;;2.20;;
53479;SDS011;56133;51.012;-1.648;2022-08-03T10:42:48;7.10;;;2.78;;
53479;SDS011;56133;51.012;-1.648;2022-08-03T10:45:19;7.57;;;2.60;;
53479;SDS011;56133;51.012;-1.648;2022-08-03T10:47:46;7.55;;;2.40;;
53479;SDS011;56133;51.012;-1.648;2022-08-03T10:50:13;11.75;;;3.20;;
53479;SDS011;56133;51.012;-1.648;2022-08-03T10:52:53;9.27;;;2.90;;
53479;SDS011;56133;51.012;-1.648;2022-08-03T10:55:33;8.60;;;3.00;;
53479;SDS011;56133;51.012;-1.648;2022-08-03T10:58:51;9.35;;;3.30;;
53479;SDS011;56133;51.012;-1.648;2022-08-03T11:01:15;11.10;;;3.55;;
53479;SDS011;56133;51.012;-1.648;2022-08-03T11:08:45;11.60;;;3.47;;
53479;SDS011;56133;51.012;-1.648;2022-08-03T11:16:22;13.98;;;4.03;;
53479;SDS011;56133;51.012;-1.648;2022-08-03T11:18:56;9.75;;;3.45;;
53479;SDS011;56133;51.012;-1.648;2022-08-03T11:29:38;8.90;;;3.53;;
53479;SDS011;56133;51.012;-1.648;2022-08-03T11:35:08;9.70;;;3.50;;
53479;SDS011;56133;51.012;-1.648;2022-08-03T11:40:37;11.45;;;3.60;;
53479;SDS011;56133;51.012;-1.648;2022-08-03T11:48:27;8.00;;;3.67;;
53479;SDS011;56133;51.012;-1.648;2022-08-03T11:50:59;13.77;;;3.80;;
53479;SDS011;56133;51.012;-1.648;2022-08-03T11:53:25;11.25;;;3.97;;
53479;SDS011;56133;51.012;-1.648;2022-08-03T11:55:51;11.63;;;3.50;;
53479;SDS011;56133;51.012;-1.648;2022-08-03T11:58:21;7.57;;;3.33;;
53479;SDS011;56133;51.012;-1.648;2022-08-03T12:00:50;10.65;;;3.22;;
53479;SDS011;56133;51.012;-1.648;2022-08-03T12:03:17;7.95;;;3.08;;
53479;SDS011;56133;51.012;-1.648;2022-08-03T12:05:51;10.27;;;3.47;;
53479;SDS011;56133;51.012;-1.648;2022-08-03T12:08:39;13.18;;;3.35;;
53479;SDS011;56133;51.012;-1.648;2022-08-03T12:11:04;11.43;;;3.72;;
53479;SDS011;56133;51.012;-1.648;2022-08-03T12:13:41;6.45;;;2.83;;
53479;SDS011;56133;51.012;-1.648;2022-08-03T12:16:10;9.35;;;2.70;;
53479;SDS011;56133;51.012;-1.648;2022-08-03T12:18:42;10.45;;;2.78;;
53479;SDS011;56133;51.012;-1.648;2022-08-03T12:21:09;7.47;;;2.42;;
53479;SDS011;56133;51.012;-1.648;2022-08-03T12:23:36;8.32;;;2.40;;
53479;SDS011;56133;51.012;-1.648;2022-08-03T12:26:07;6.18;;;2.58;;
53479;SDS011;56133;51.012;-1.648;2022-08-03T12:28:34;8.60;;;2.40;;
53479;SDS011;56133;51.012;-1.648;2022-08-03T12:31:01;7.50;;;2.50;;
53479;SDS011;56133;51.012;-1.648;2022-08-03T12:33:30;10.02;;;2.72;;
53479;SDS011;56133;51.012;-1.648;2022-08-03T12:38:28;7.75;;;2.65;;
53479;SDS011;56133;51.012;-1.648;2022-08-03T12:41:05;7.50;;;2.80;;
53479;SDS011;56133;51.012;-1.648;2022-08-03T12:43:35;7.95;;;2.80;;
53479;SDS011;56133;51.012;-1.648;2022-08-03T12:46:11;7.80;;;2.40;;
53479;SDS011;56133;51.012;-1.648;2022-08-03T12:48:57;8.63;;;2.45;;
53479;SDS011;56133;51.012;-1.648;2022-08-03T12:51:24;9.68;;;2.60;;
53479;SDS011;56133;51.012;-1.648;2022-08-03T12:53:54;9.18;;;2.53;;
53479;SDS011;56133;51.012;-1.648;2022-08-03T12:56:21;7.75;;;2.25;;
53479;SDS011;56133;51.012;-1.648;2022-08-03T12:58:47;6.38;;;2.65;;
53479;SDS011;56133;51.012;-1.648;2022-08-03T13:01:14;6.32;;;2.30;;
53479;SDS011;56133;51.012;-1.648;2022-08-03T13:03:41;5.43;;;2.17;;
53479;SDS011;56133;51.012;-1.648;2022-08-03T13:06:15;6.47;;;1.70;;
53479;SDS011;56133;51.012;-1.648;2022-08-03T13:08:44;5.20;;;1.65;;
53479;SDS011;56133;51.012;-1.648;2022-08-03T13:13:43;6.50;;;1.73;;
53479;SDS011;56133;51.012;-1.648;2022-08-03T13:16:09;4.68;;;1.70;;
53479;SDS011;56133;51.012;-1.648;2022-08-03T13:18:35;3.67;;;1.80;;
53479;SDS011;56133;51.012;-1.648;2022-08-03T13:21:00;4.50;;;1.55;;
53479;SDS011;56133;51.012;-1.648;2022-08-03T13:23:26;5.65;;;1.90;;
53479;SDS011;56133;51.012;-1.648;2022-08-03T13:25:51;6.95;;;1.95;;
53479;SDS011;56133;51.012;-1.648;2022-08-03T13:28:17;6.07;;;2.10;;
53479;SDS011;56133;51.012;-1.648;2022-08-03T13:30:42;6.70;;;2.20;;
53479;SDS011;56133;51.012;-1.648;2022-08-03T13:33:08;4.32;;;2.20;;
53479;SDS011;56133;51.012;-1.648;2022-08-03T13:35:33;10.77;;;2.15;;
53479;SDS011;56133;51.012;-1.648;2022-08-03T13:37:59;4.88;;;1.95;;
53479;SDS011;56133;51.012;-1.648;2022-08-03T13:40:24;5.18;;;1.77;;
53479;SDS011;56133;51.012;-1.648;2022-08-03T13:42:50;6.47;;;2.00;;
53479;SDS011;56133;51.012;-1.648;2022-08-03T13:45:15;6.70;;;2.55;;
53479;SDS011;56133;51.012;-1.648;2022-08-03T13:47:41;4.43;;;1.90;;
53479;SDS011;56133;51.012;-1.648;2022-08-03T13:50:06;8.80;;;2.10;;
53479;SDS011;56133;51.012;-1.648;2022-08-03T13:52:32;4.82;;;1.73;;
53479;SDS011;56133;51.012;-1.648;2022-08-03T13:54:59;8.25;;;2.10;;
53479;SDS011;56133;51.012;-1.648;2022-08-03T13:57:25;15.13;;;2.53;;
53479;SDS011;56133;51.012;-1.648;2022-08-03T13:59:51;7.68;;;2.03;;
53479;SDS011;56133;51.012;-1.648;2022-08-03T14:02:17;7.22;;;1.60;;
53479;SDS011;56133;51.012;-1.648;2022-08-03T14:04:42;7.82;;;2.03;;
53479;SDS011;56133;51.012;-1.648;2022-08-03T14:07:08;9.60;;;2.38;;
53479;SDS011;56133;51.012;-1.648;2022-08-03T14:09:33;5.68;;;1.92;;
53479;SDS011;56133;51.012;-1.648;2022-08-03T14:11:59;9.30;;;2.30;;
53479;SDS011;56133;51.012;-1.648;2022-08-03T14:14:25;5.55;;;2.15;;
53479;SDS011;56133;51.012;-1.648;2022-08-03T14:16:50;6.43;;;2.15;;
53479;SDS011;56133;51.012;-1.648;2022-08-03T14:19:16;8.60;;;2.08;;
53479;SDS011;56133;51.012;-1.648;2022-08-03T14:21:41;10.05;;;2.15;;
53479;SDS011;56133;51.012;-1.648;2022-08-03T14:24:07;7.95;;;2.30;;
53479;SDS011;56133;51.012;-1.648;2022-08-03T14:26:33;10.45;;;2.38;;
53479;SDS011;56133;51.012;-1.648;2022-08-03T14:28:58;8.82;;;1.77;;
53479;SDS011;56133;51.012;-1.648;2022-08-03T14:31:24;6.80;;;2.00;;
53479;SDS011;56133;51.012;-1.648;2022-08-03T14:33:50;5.57;;;1.63;;
53479;SDS011;56133;51.012;-1.648;2022-08-03T14:36:16;8.90;;;1.50;;
53479;SDS011;56133;51.012;-1.648;2022-08-03T14:38:41;7.28;;;1.55;;
53479;SDS011;56133;51.012;-1.648;2022-08-03T14:41:07;4.65;;;1.35;;
53479;SDS011;56133;51.012;-1.648;2022-08-03T14:43:32;4.50;;;1.35;;
53479;SDS011;56133;51.012;-1.648;2022-08-03T14:45:58;4.35;;;1.20;;
53479;SDS011;56133;51.012;-1.648;2022-08-03T14:48:23;6.07;;;1.35;;
53479;SDS011;56133;51.012;-1.648;2022-08-03T14:50:49;4.72;;;1.50;;
53479;SDS011;56133;51.012;-1.648;2022-08-03T14:53:16;7.45;;;1.90;;
53479;SDS011;56133;51.012;-1.648;2022-08-03T14:55:43;10.32;;;1.60;;
53479;SDS011;56133;51.012;-1.648;2022-08-03T14:58:10;5.63;;;1.88;;
53479;SDS011;56133;51.012;-1.648;2022-08-03T15:00:35;4.40;;;1.55;;
53479;SDS011;56133;51.012;-1.648;2022-08-03T15:03:01;8.95;;;1.45;;
53479;SDS011;56133;51.012;-1.648;2022-08-03T15:05:27;5.15;;;1.75;;
53479;SDS011;56133;51.012;-1.648;2022-08-03T15:07:53;3.88;;;1.52;;
53479;SDS011;56133;51.012;-1.648;2022-08-03T15:10:18;4.32;;;1.50;;
53479;SDS011;56133;51.012;-1.648;2022-08-03T15:12:44;4.32;;;2.00;;
53479;SDS011;56133;51.012;-1.648;2022-08-03T15:15:09;5.85;;;1.85;;
53479;SDS011;56133;51.012;-1.648;2022-08-03T15:17:35;4.47;;;1.48;;
53479;SDS011;56133;51.012;-1.648;2022-08-03T15:20:01;4.10;;;2.00;;
53479;SDS011;56133;51.012;-1.648;2022-08-03T15:22:26;4.70;;;2.00;;
53479;SDS011;56133;51.012;-1.648;2022-08-03T15:24:52;5.65;;;1.80;;
53479;SDS011;56133;51.012;-1.648;2022-08-03T15:27:18;4.65;;;1.98;;